Time;durP1;ratioP1;P1;durP2;ratioP2;P2;SDS_P1;SDS_P2;PMS_P1;PMS_P2;Temp;Humidity;BMP_temperature;BMP_pressure;BME280_temperature;BME280_humidity;BME280_pressure;Samples;Min_cycle;Max_cycle;Signal;HPM_P1;HPM_P2
2021/12/13 00:01:07;;;;;;;;;0.00;0.00;;;;;10.93;76.28;102350.81;5040825;28;45365;-86
2021/12/13 00:03:46;;;;;;;;;1.00;1.00;;;;;10.83;76.03;102332.25;5055550;28;45438;-85
2021/12/13 00:06:16;;;;;;;;;2.00;0.25;;;;;10.85;76.02;102335.81;5031589;28;45352;-85
2021/12/13 00:08:47;;;;;;;;;1.25;0.75;;;;;10.88;76.37;102350.66;5053210;28;47679;-86
2021/12/13 00:11:17;;;;;;;;;2.25;1.00;;;;;10.83;76.08;102332.25;5057004;28;45425;-85
2021/12/13 00:13:54;;;;;;;;;0.50;0.50;;;;;10.76;76.29;102306.84;5046864;28;45351;-86
2021/12/13 00:16:27;;;;;;;;;1.00;1.00;;;;;10.79;76.12;102313.88;5060028;28;45365;-86
2021/12/13 00:18:58;;;;;;;;;0.75;0.25;;;;;10.92;76.18;102328.16;5056334;28;45974;-86
2021/12/13 00:21:55;;;;;;;;;2.75;1.00;;;;;10.74;76.22;102292.88;5074013;28;45624;-85
2021/12/13 00:24:24;;;;;;;;;0.00;0.00;;;;;10.64;76.06;102284.78;5071646;28;45189;-87
2021/12/13 00:26:59;;;;;;;;;1.00;1.00;;;;;10.75;76.08;102294.66;5060399;28;45318;-87
2021/12/13 00:29:38;;;;;;;;;0.75;0.00;;;;;10.75;76.15;102292.06;5075759;28;47139;-87
2021/12/13 00:32:10;;;;;;;;;1.00;1.00;;;;;10.88;75.89;102316.78;5064136;28;44754;-85
2021/12/13 00:34:43;;;;;;;;;0.75;0.75;;;;;10.66;75.83;102276.13;5066341;28;45441;-86
2021/12/13 00:37:24;;;;;;;;;0.00;0.00;;;;;10.59;76.11;102272.41;5067432;28;44881;-87
2021/12/13 00:40:05;;;;;;;;;0.00;0.00;;;;;10.68;75.77;102295.25;5073070;28;46107;-85
2021/12/13 00:42:52;;;;;;;;;0.25;0.00;;;;;10.70;76.04;102297.09;5060213;28;45463;-86
2021/12/13 00:45:21;;;;;;;;;2.00;1.00;;;;;10.74;76.04;102300.69;5062258;28;45291;-86
2021/12/13 00:47:47;;;;;;;;;3.50;1.00;;;;;10.64;75.78;102282.16;5076381;28;44778;-85
2021/12/13 00:50:35;;;;;;;;;0.50;0.25;;;;;10.86;75.88;102315.84;5063151;28;47236;-86
2021/12/13 00:53:01;;;;;;;;;0.50;0.00;;;;;10.71;76.05;102287.56;5058644;28;45304;-85
2021/12/13 00:55:34;;;;;;;;;0.00;0.00;;;;;10.68;75.77;102284.84;5067275;28;45463;-85
2021/12/13 00:58:03;;;;;;;;;0.25;0.25;;;;;10.85;75.77;102316.69;5074258;28;45336;-85
2021/12/13 01:00:41;;;;;;;;;0.00;0.00;;;;;10.71;75.92;102295.38;5070407;28;48105;-85
2021/12/13 01:03:20;;;;;;;;;0.00;0.00;;;;;10.37;75.54;102237.81;5071288;28;44746;-85
2021/12/13 01:06:34;;;;;;;;;3.00;0.25;;;;;10.89;75.55;102319.44;5056432;28;45343;-86
2021/12/13 01:09:34;;;;;;;;;1.00;0.00;;;;;10.88;75.74;102322.00;5043546;28;45561;-85
2021/12/13 01:12:04;;;;;;;;;1.50;0.75;;;;;10.87;75.68;102315.00;5031619;28;45295;-86
2021/12/13 01:14:56;;;;;;;;;0.75;0.75;;;;;10.46;75.55;102242.47;5023233;28;45177;-85
2021/12/13 01:20:28;;;;;;;;;0.00;0.00;;;;;10.86;75.55;102316.72;5020307;28;45418;-86
2021/12/13 01:23:06;;;;;;;;;0.50;0.50;;;;;10.80;75.57;102294.78;5057193;28;47224;-86
2021/12/13 01:26:03;;;;;;;;;1.50;0.50;;;;;10.73;75.73;102278.97;5055894;28;45135;-86
2021/12/13 01:28:37;;;;;;;;;0.75;0.00;;;;;10.70;75.59;102270.16;5038829;28;44667;-85
2021/12/13 01:31:24;;;;;;;;;0.00;0.00;;;;;10.66;75.67;102257.88;5064781;28;45203;-86
2021/12/13 01:33:52;;;;;;;;;0.00;0.00;;;;;10.67;75.54;102262.25;5036911;28;47143;-86
2021/12/13 01:36:24;;;;;;;;;0.00;0.00;;;;;10.41;75.70;102233.59;5016844;28;45246;-86
2021/12/13 01:38:59;;;;;;;;;1.00;1.00;;;;;10.89;75.76;102323.75;5043844;28;44728;-85
2021/12/13 01:41:44;;;;;;;;;1.00;1.00;;;;;9.88;75.72;102142.53;5037644;28;45162;-86
2021/12/13 01:44:23;;;;;;;;;0.00;0.00;;;;;9.91;75.69;102159.06;4997622;28;47155;-86
2021/12/13 01:46:59;;;;;;;;;0.00;0.00;;;;;10.21;75.51;102208.69;5002031;28;44632;-86
2021/12/13 01:49:36;;;;;;;;;2.00;0.00;;;;;10.80;75.67;102319.13;5019199;28;44746;-86
2021/12/13 01:52:24;;;;;;;;;0.00;0.00;;;;;9.85;75.97;102155.44;5006361;28;44865;-86
2021/12/13 01:54:55;;;;;;;;;0.75;0.00;;;;;9.83;75.93;102166.63;5036174;28;46845;-86
2021/12/13 01:57:26;;;;;;;;;0.00;0.00;;;;;10.80;76.01;102311.31;5039317;28;45330;-86
2021/12/13 02:00:08;;;;;;;;;0.00;0.00;;;;;10.03;75.91;102201.13;5036203;28;44705;-87
2021/12/13 02:02:43;;;;;;;;;0.00;0.00;;;;;10.13;75.60;102203.22;5023288;28;45331;-86
2021/12/13 02:05:23;;;;;;;;;0.00;0.00;;;;;9.90;76.11;102160.81;5020544;28;47245;-86
2021/12/13 02:07:59;;;;;;;;;0.25;0.25;;;;;10.44;75.86;102241.53;5031185;28;44663;-86
2021/12/13 02:10:40;;;;;;;;;0.00;0.00;;;;;9.82;75.91;102149.22;5068055;28;44675;-86
2021/12/13 02:13:17;;;;;;;;;1.00;1.00;;;;;10.88;76.00;102337.63;5067589;28;45339;-85
2021/12/13 02:18:34;;;;;;;;;1.50;0.00;;;;;10.01;76.03;102180.25;5079427;28;45240;-86
2021/12/13 02:21:18;;;;;;;;;0.00;0.00;;;;;9.91;75.91;102157.34;5080713;28;44766;-85
2021/12/13 02:23:47;;;;;;;;;0.00;0.00;;;;;10.90;75.76;102329.00;5081008;28;45530;-87
2021/12/13 02:26:12;;;;;;;;;0.75;0.00;;;;;9.80;75.83;102148.31;5078749;28;47052;-85
2021/12/13 02:28:41;;;;;;;;;0.00;0.00;;;;;10.90;75.95;102333.31;5065521;28;45066;-86
2021/12/13 02:31:12;;;;;;;;;0.00;0.00;;;;;10.88;75.99;102335.88;5047332;28;44829;-86
2021/12/13 02:33:39;;;;;;;;;0.00;0.00;;;;;10.89;76.14;102335.06;5051443;28;45329;-85
2021/12/13 02:36:10;;;;;;;;;0.00;0.00;;;;;10.60;75.74;102282.88;5059534;28;45491;-86
2021/12/13 02:38:37;;;;;;;;;0.00;0.00;;;;;10.80;75.91;102311.31;5050824;28;45219;-86
2021/12/13 02:41:04;;;;;;;;;1.00;1.00;;;;;10.57;75.90;102269.75;5049615;28;45311;-86
2021/12/13 02:43:40;;;;;;;;;0.00;0.00;;;;;10.77;75.99;102308.59;5058504;28;45463;-86
2021/12/13 02:46:06;;;;;;;;;0.00;0.00;;;;;10.60;75.86;102282.00;5045964;28;46407;-86
2021/12/13 02:48:36;;;;;;;;;0.00;0.00;;;;;10.88;75.71;102328.06;5054240;28;45411;-86
2021/12/13 02:51:39;;;;;;;;;0.00;0.00;;;;;10.25;75.83;102223.56;5054313;28;45440;-86
2021/12/13 02:54:16;;;;;;;;;0.00;0.00;;;;;10.85;75.95;102322.78;5025553;28;45754;-85
2021/12/13 02:56:49;;;;;;;;;2.25;1.00;;;;;10.59;75.79;102275.91;5042311;28;45911;-86
2021/12/13 02:59:16;;;;;;;;;1.75;0.00;;;;;10.84;75.86;102320.13;5048852;28;45392;-86
2021/12/13 03:02:04;;;;;;;;;1.25;0.50;;;;;10.77;75.95;102298.19;5058798;28;45353;-85
2021/12/13 03:04:30;;;;;;;;;1.00;1.00;;;;;10.72;75.90;102285.00;5030716;28;45483;-85
2021/12/13 03:07:12;;;;;;;;;1.00;0.00;;;;;10.80;75.69;102305.19;5052673;28;45379;-85
2021/12/13 03:09:41;;;;;;;;;0.75;0.75;;;;;10.60;75.73;102274.19;5044244;28;45420;-86
2021/12/13 03:12:11;;;;;;;;;1.00;1.00;;;;;10.74;75.84;102304.19;5057862;28;45317;-86
2021/12/13 03:14:43;;;;;;;;;0.00;0.00;;;;;10.57;76.08;102269.75;5051987;28;45460;-86
2021/12/13 03:17:36;;;;;;;;;0.00;0.00;;;;;10.87;76.17;102323.69;5047373;28;46136;-85
2021/12/13 03:20:23;;;;;;;;;0.00;0.00;;;;;10.90;75.85;102322.91;5029852;28;45771;-87
2021/12/13 03:22:58;;;;;;;;;0.25;0.25;;;;;10.93;76.09;102319.53;5046889;28;45402;-86
2021/12/13 03:25:51;;;;;;;;;0.00;0.00;;;;;10.60;76.01;102253.38;5052930;28;45344;-86
2021/12/13 03:28:22;;;;;;;;;1.50;1.50;;;;;10.95;75.82;102308.31;5032664;28;47391;-85
2021/12/13 03:31:05;;;;;;;;;0.50;0.50;;;;;10.92;75.96;102303.00;5060693;28;45375;-86
2021/12/13 03:33:51;;;;;;;;;4.00;2.00;;;;;10.88;75.95;102307.22;5062085;28;45282;-86
2021/12/13 03:36:22;;;;;;;;;2.00;1.00;;;;;10.63;75.94;102276.91;5033356;28;45383;-86
2021/12/13 03:38:52;;;;;;;;;0.25;0.25;;;;;10.61;75.97;102278.56;5041899;28;45410;-86
2021/12/13 03:41:21;;;;;;;;;2.75;1.00;;;;;10.73;76.08;102280.69;5046146;28;45387;-86
2021/12/13 03:43:58;;;;;;;;;1.00;1.00;;;;;10.80;75.97;102303.50;5066643;28;45350;-84
2021/12/13 03:46:27;;;;;;;;;1.00;1.00;;;;;10.66;76.23;102282.22;5053623;28;45447;-85
2021/12/13 03:48:55;;;;;;;;;1.00;1.00;;;;;10.63;76.09;102269.97;5063411;28;46302;-84
2021/12/13 03:51:27;;;;;;;;;0.25;0.25;;;;;10.70;75.97;102281.47;5082079;28;45372;-86
2021/12/13 03:53:56;;;;;;;;;0.00;0.00;;;;;10.72;75.73;102291.94;5065393;28;45405;-84
2021/12/13 03:56:28;;;;;;;;;0.00;0.00;;;;;10.54;75.94;102250.56;5075843;28;44889;-86
2021/12/13 03:59:01;;;;;;;;;3.50;1.75;;;;;10.40;76.03;102232.72;5063027;28;45559;-84
2021/12/13 04:01:41;;;;;;;;;0.75;0.75;;;;;10.58;75.89;102263.72;5062855;28;45263;-85
2021/12/13 04:04:11;;;;;;;;;0.00;0.00;;;;;10.63;75.96;102277.78;5063684;28;45287;-84
2021/12/13 04:06:44;;;;;;;;;0.25;0.25;;;;;10.48;76.27;102254.69;5060569;28;45220;-85
2021/12/13 04:09:11;;;;;;;;;3.00;1.00;;;;;10.24;76.01;102219.19;5059300;28;47347;-86
2021/12/13 04:11:42;;;;;;;;;1.00;1.00;;;;;10.27;76.30;102231.41;5077323;28;44783;-85
2021/12/13 04:14:14;;;;;;;;;0.00;0.00;;;;;10.68;76.05;102288.34;5077636;28;45394;-85
2021/12/13 04:17:21;;;;;;;;;3.00;1.00;;;;;10.51;75.93;102269.56;5059856;28;45390;-85
2021/12/13 04:19:57;;;;;;;;;1.00;0.00;;;;;10.46;75.76;102274.63;5058834;28;47019;-85
2021/12/13 04:22:28;;;;;;;;;0.00;0.00;;;;;10.56;76.24;102280.13;5063138;28;44792;-86
2021/12/13 04:25:07;;;;;;;;;0.75;0.00;;;;;10.50;75.85;102272.97;5072636;28;45260;-85
2021/12/13 04:27:48;;;;;;;;;0.00;0.00;;;;;10.33;75.91;102244.66;5082578;28;44767;-85
2021/12/13 04:30:16;;;;;;;;;1.00;1.00;;;;;10.60;76.03;102289.81;5074566;28;47494;-85
2021/12/13 04:32:46;;;;;;;;;2.50;1.00;;;;;10.58;76.01;102292.38;5059182;28;45352;-85
2021/12/13 04:35:13;;;;;;;;;0.50;0.50;;;;;10.19;76.00;102236.34;5056391;28;45204;-85
2021/12/13 04:37:54;;;;;;;;;0.00;0.00;;;;;10.52;75.99;102279.13;5056250;28;45437;-85
2021/12/13 04:40:40;;;;;;;;;0.75;0.75;;;;;10.43;75.79;102264.06;5062775;28;46218;-85
2021/12/13 04:43:10;;;;;;;;;2.50;2.50;;;;;10.41;75.79;102265.72;5063638;28;45261;-85
2021/12/13 04:45:40;;;;;;;;;0.00;0.00;;;;;10.36;75.93;102267.28;5054608;28;45343;-85
2021/12/13 04:48:13;;;;;;;;;2.00;0.50;;;;;10.30;75.74;102264.47;5061493;28;44920;-85
2021/12/13 04:51:04;;;;;;;;;1.00;1.00;;;;;10.55;75.64;102304.38;5079459;28;45131;-84
2021/12/13 04:53:33;;;;;;;;;0.00;0.00;;;;;10.42;75.75;102279.63;5079017;28;45379;-84
2021/12/13 04:56:01;;;;;;;;;2.25;0.50;;;;;10.54;75.81;102302.63;5058885;28;45258;-85
2021/12/13 04:58:29;;;;;;;;;0.25;0.25;;;;;10.57;75.36;102307.94;5059472;28;45346;-85
2021/12/13 05:01:01;;;;;;;;;0.00;0.00;;;;;10.20;75.35;102247.66;5053992;28;46398;-85
2021/12/13 05:03:38;;;;;;;;;0.00;0.00;;;;;10.57;75.47;102313.16;5040165;28;44701;-85
2021/12/13 05:06:14;;;;;;;;;0.75;0.75;;;;;10.37;75.45;102275.16;5039293;28;45313;-85
2021/12/13 05:08:40;;;;;;;;;0.00;0.00;;;;;10.57;75.38;102319.22;5039568;28;45520;-85
2021/12/13 05:11:09;;;;;;;;;0.75;0.75;;;;;10.61;75.42;102323.72;5058583;28;45070;-85
2021/12/13 05:13:46;;;;;;;;;1.00;1.00;;;;;10.36;75.10;102278.56;5094645;28;45456;-87
2021/12/13 05:16:13;;;;;;;;;1.00;1.00;;;;;10.51;75.21;102287.78;5080902;28;44677;-86
2021/12/13 05:18:52;;;;;;;;;0.00;0.00;;;;;10.47;74.98;102281.59;5082348;28;45299;-85
2021/12/13 05:21:34;;;;;;;;;0.00;0.00;;;;;10.11;75.22;102215.25;5068345;28;45288;-86
2021/12/13 05:24:05;;;;;;;;;1.00;1.00;;;;;10.61;75.05;102286.38;5060660;28;45313;-86
2021/12/13 05:26:48;;;;;;;;;0.00;0.00;;;;;10.68;75.06;102303.06;5061512;28;45522;-86
2021/12/13 05:29:31;;;;;;;;;1.00;0.00;;;;;10.69;75.38;102305.72;5060441;28;45478;-87
2021/12/13 05:32:05;;;;;;;;;0.00;0.00;;;;;10.79;74.94;102319.97;5050586;28;46898;-87
2021/12/13 05:34:55;;;;;;;;;0.00;0.00;;;;;10.81;74.90;102326.09;5061494;28;45377;-85
2021/12/13 05:37:22;;;;;;;;;0.00;0.00;;;;;10.53;74.93;102275.69;5057825;28;45299;-86
2021/12/13 05:40:06;;;;;;;;;0.00;0.00;;;;;10.61;75.04;102281.16;5051608;28;45243;-86
2021/12/13 05:42:41;;;;;;;;;0.00;0.00;;;;;10.74;75.10;102308.50;5054016;28;47594;-86
2021/12/13 05:45:10;;;;;;;;;1.00;1.00;;;;;10.81;74.83;102322.63;5048486;28;45473;-86
2021/12/13 05:47:36;;;;;;;;;1.00;1.00;;;;;10.82;74.73;102324.38;5042314;28;45525;-87
2021/12/13 05:50:05;;;;;;;;;0.00;0.00;;;;;10.66;74.78;102310.88;5046800;28;45573;-84
2021/12/13 05:52:36;;;;;;;;;0.00;0.00;;;;;10.53;74.68;102278.28;5053514;28;46225;-84
2021/12/13 05:55:10;;;;;;;;;0.00;0.00;;;;;10.41;74.85;102273.53;5041769;28;45412;-85
2021/12/13 05:57:43;;;;;;;;;0.00;0.00;;;;;10.51;74.94;102287.78;5058836;28;45383;-84
2021/12/13 06:00:17;;;;;;;;;1.00;1.00;;;;;10.64;75.11;102315.13;5064640;28;45272;-84
2021/12/13 06:03:17;;;;;;;;;0.50;0.00;;;;;10.61;74.97;102315.03;5052256;28;45545;-82
2021/12/13 06:05:52;;;;;;;;;1.00;1.00;;;;;10.42;75.16;102290.03;5043387;28;45494;-82
2021/12/13 06:08:33;;;;;;;;;1.00;1.00;;;;;10.54;75.12;102310.44;5053717;28;45432;-82
2021/12/13 06:11:07;;;;;;;;;3.50;2.00;;;;;10.56;74.78;102322.66;5041678;28;45412;-82
2021/12/13 06:13:46;;;;;;;;;0.00;0.00;;;;;10.55;74.95;102307.88;5044586;28;45531;-83
2021/12/13 06:16:23;;;;;;;;;0.00;0.00;;;;;10.51;74.88;102316.44;5035343;28;45361;-83
2021/12/13 06:18:58;;;;;;;;;1.00;1.00;;;;;10.49;75.10;102312.88;5041311;28;45505;-82
2021/12/13 06:21:45;;;;;;;;;0.25;0.00;;;;;10.49;75.02;102321.59;5046994;28;45495;-83
2021/12/13 06:24:11;;;;;;;;;0.25;0.00;;;;;10.50;74.96;102325.94;5032195;28;46284;-85
2021/12/13 06:26:38;;;;;;;;;2.00;2.00;;;;;10.26;74.79;102286.88;5053129;28;45380;-82
2021/12/13 06:29:06;;;;;;;;;0.00;0.00;;;;;10.34;74.87;102311.50;5053530;28;45350;-83
2021/12/13 06:31:41;;;;;;;;;0.00;0.00;;;;;9.95;74.83;102252.88;5044092;28;45346;-82
2021/12/13 06:34:11;;;;;;;;;0.50;0.50;;;;;10.17;75.02;102300.47;5029405;28;46638;-83
2021/12/13 06:36:57;;;;;;;;;2.00;0.75;;;;;10.29;75.12;102333.00;5037266;28;45465;-82
2021/12/13 06:39:31;;;;;;;;;0.00;0.00;;;;;10.27;75.00;102328.59;5037341;28;45513;-84
2021/12/13 06:42:03;;;;;;;;;1.00;1.00;;;;;10.19;74.87;102318.75;5037921;28;45369;-84
2021/12/13 06:44:39;;;;;;;;;0.00;0.00;;;;;10.17;74.77;102316.09;5048421;28;45362;-83
2021/12/13 06:47:15;;;;;;;;;0.00;0.00;;;;;10.26;74.87;102331.13;5048762;28;45456;-84
2021/12/13 06:49:50;;;;;;;;;1.00;1.00;;;;;10.22;74.79;102332.75;5058931;28;45472;-85
2021/12/13 06:52:15;;;;;;;;;0.00;0.00;;;;;10.21;75.22;102327.50;5041929;28;45498;-81
2021/12/13 06:54:44;;;;;;;;;0.50;0.00;;;;;10.17;74.59;102328.22;5030094;28;45385;-82
2021/12/13 06:57:29;;;;;;;;;0.00;0.00;;;;;10.22;74.95;102330.16;5037868;28;45282;-80
2021/12/13 07:00:14;;;;;;;;;1.50;0.00;;;;;9.96;74.68;102285.84;5049326;28;45544;-82
2021/12/13 07:02:48;;;;;;;;;1.50;1.00;;;;;10.10;74.84;102307.19;5050924;28;45463;-82
2021/12/13 07:05:18;;;;;;;;;0.00;0.00;;;;;9.65;74.76;102229.25;5059232;28;45814;-85
2021/12/13 07:07:52;;;;;;;;;0.00;0.00;;;;;10.08;74.96;102310.56;5050817;28;45474;-85
2021/12/13 07:10:24;;;;;;;;;0.00;0.00;;;;;10.14;74.48;102319.47;5049154;28;45366;-86
2021/12/13 07:12:54;;;;;;;;;0.00;0.00;;;;;9.78;74.52;102261.78;5043560;28;45788;-85
2021/12/13 07:15:42;;;;;;;;;0.00;0.00;;;;;10.14;74.68;102327.28;5052199;28;46150;-83
2021/12/13 07:18:28;;;;;;;;;0.00;0.00;;;;;10.15;74.57;102338.59;5040619;28;45690;-85
2021/12/13 07:21:07;;;;;;;;;0.00;0.00;;;;;10.15;74.68;102330.78;5032802;28;45236;-85
2021/12/13 07:24:12;;;;;;;;;0.25;0.25;;;;;9.74;74.76;102268.63;5041680;28;45631;-85
2021/12/13 07:26:39;;;;;;;;;0.75;0.75;;;;;10.05;74.73;102311.34;5036232;28;47264;-84
2021/12/13 07:29:18;;;;;;;;;0.00;0.00;;;;;9.76;74.76;102262.63;5033547;28;45327;-85
2021/12/13 07:31:46;;;;;;;;;0.00;0.00;;;;;9.81;74.86;102277.50;5058272;28;45283;-85
2021/12/13 07:34:19;;;;;;;;;1.00;0.00;;;;;10.12;74.61;102335.88;5046937;28;45648;-85
2021/12/13 07:36:54;;;;;;;;;0.00;0.00;;;;;9.88;74.90;102303.81;5049146;28;46203;-85
2021/12/13 07:39:24;;;;;;;;;0.50;0.00;;;;;10.01;74.66;102323.34;5041120;28;45397;-84
2021/12/13 07:41:55;;;;;;;;;1.25;0.00;;;;;10.11;74.49;102336.72;5056768;28;45249;-84
2021/12/13 07:44:42;;;;;;;;;0.00;0.00;;;;;10.23;74.44;102352.75;5053638;28;45285;-85
2021/12/13 07:47:15;;;;;;;;;2.00;2.00;;;;;10.20;74.59;102349.16;5058861;28;47465;-83
2021/12/13 07:49:45;;;;;;;;;2.75;0.75;;;;;9.81;74.73;102283.63;5076965;28;45345;-85
2021/12/13 07:52:25;;;;;;;;;0.00;0.00;;;;;9.92;74.50;102288.31;5041384;28;45382;-84
2021/12/13 07:54:51;;;;;;;;;0.00;0.00;;;;;10.27;74.45;102353.75;5040777;28;45501;-85
2021/12/13 07:57:24;;;;;;;;;0.00;0.00;;;;;10.11;74.44;102321.97;5053693;28;46387;-85
2021/12/13 07:59:51;;;;;;;;;0.75;0.00;;;;;10.29;74.62;102352.06;5041824;28;45456;-85
2021/12/13 08:02:25;;;;;;;;;0.00;0.00;;;;;10.33;74.25;102353.09;5046665;28;45593;-86
2021/12/13 08:05:08;;;;;;;;;0.00;0.00;;;;;10.31;73.82;102329.59;5059655;28;45374;-87
2021/12/13 08:07:59;;;;;;;;;0.00;0.00;;;;;10.15;73.72;102299.53;5042986;28;45591;-88
2021/12/13 08:10:40;;;;;;;;;0.00;0.00;;;;;10.46;73.41;102333.59;5040924;28;45555;-87
2021/12/13 08:13:15;;;;;;;;;0.00;0.00;;;;;10.50;73.28;102340.69;5041121;28;46795;-86
2021/12/13 08:15:45;;;;;;;;;2.75;1.25;;;;;10.31;73.35;102307.88;5038627;28;45461;-87
2021/12/13 08:18:33;;;;;;;;;0.00;0.00;;;;;10.14;73.12;102293.44;5040805;28;46054;-87
2021/12/13 08:21:07;;;;;;;;;0.00;0.00;;;;;10.54;73.32;102353.00;5039573;28;45544;-89
2021/12/13 08:23:46;;;;;;;;;0.00;0.00;;;;;9.65;72.80;102200.66;5042989;28;45261;-90
2021/12/13 08:26:17;;;;;;;;;0.00;0.00;;;;;10.55;73.48;102351.25;5041319;28;45345;-89
2021/12/13 08:28:47;;;;;;;;;0.25;0.00;;;;;9.93;72.88;102251.06;5040730;28;47209;-85
2021/12/13 08:31:31;;;;;;;;;0.00;0.00;;;;;10.22;73.01;102292.81;5038715;28;45750;-86
2021/12/13 08:34:07;;;;;;;;;1.00;0.00;;;;;10.58;72.96;102344.44;5041331;28;45378;-85
2021/12/13 08:36:34;;;;;;;;;0.00;0.00;;;;;10.52;73.10;102342.53;5042099;28;45826;-85
2021/12/13 08:39:00;;;;;;;;;0.00;0.00;;;;;10.47;72.93;102346.66;5058591;28;46699;-85
2021/12/13 08:41:38;;;;;;;;;0.75;0.75;;;;;10.49;73.15;102349.34;5043007;28;45446;-84
2021/12/13 08:44:17;;;;;;;;;0.00;0.00;;;;;10.14;73.69;102301.25;5038171;28;45441;-84
2021/12/13 08:46:46;;;;;;;;;0.75;0.00;;;;;10.47;73.37;102350.97;5037786;28;45403;-83
2021/12/13 08:49:31;;;;;;;;;2.00;0.75;;;;;10.43;73.54;102364.69;5047944;28;45621;-85
2021/12/13 08:52:02;;;;;;;;;0.00;0.00;;;;;10.34;73.65;102352.25;5042849;28;45511;-83
2021/12/13 08:54:39;;;;;;;;;0.25;0.25;;;;;10.06;73.98;102312.22;5041934;28;45413;-89
2021/12/13 08:57:10;;;;;;;;;1.00;0.00;;;;;10.35;74.11;102362.72;5060577;28;45562;-90
2021/12/13 08:59:48;;;;;;;;;0.00;0.00;;;;;9.62;73.91;102232.63;5042860;28;46790;-87
2021/12/13 09:02:14;;;;;;;;;0.00;0.00;;;;;10.05;74.15;102323.47;5047471;28;45426;-88
2021/12/13 09:04:57;;;;;;;;;0.00;0.00;;;;;10.36;73.92;102367.06;5043605;28;45248;-86
2021/12/13 09:07:24;;;;;;;;;0.00;0.00;;;;;9.87;73.76;102290.75;5042935;28;45473;-86
2021/12/13 09:09:50;;;;;;;;;0.00;0.00;;;;;10.14;73.95;102347.22;5047736;28;46122;-85
2021/12/13 09:12:29;;;;;;;;;0.00;0.00;;;;;9.32;74.01;102225.47;5042231;28;45263;-86
2021/12/13 09:14:56;;;;;;;;;0.00;0.00;;;;;10.16;74.36;102368.09;5042544;28;45649;-86
2021/12/13 09:17:22;;;;;;;;;0.00;0.00;;;;;10.15;74.25;102372.41;5034393;28;45687;-87
2021/12/13 09:19:47;;;;;;;;;0.00;0.00;;;;;10.13;74.26;102371.47;5044674;28;46517;-87
2021/12/13 09:22:22;;;;;;;;;1.75;0.00;;;;;10.12;74.12;102383.59;5047044;28;45543;-87
2021/12/13 09:25:03;;;;;;;;;0.00;0.00;;;;;10.02;74.53;102364.13;5047504;28;45453;-87
2021/12/13 09:27:40;;;;;;;;;0.00;0.00;;;;;10.20;74.21;102383.88;5045499;28;45489;-87
2021/12/13 09:30:11;;;;;;;;;0.75;0.75;;;;;10.21;73.97;102389.97;5030146;28;45532;-86
2021/12/13 09:32:43;;;;;;;;;0.00;0.00;;;;;9.95;74.06;102332.66;5039031;28;45524;-88
2021/12/13 09:35:33;;;;;;;;;0.50;0.00;;;;;10.25;73.96;102381.44;5040571;28;45516;-88
2021/12/13 09:38:19;;;;;;;;;0.00;0.00;;;;;9.46;73.53;102246.75;5042181;28;45624;-87
2021/12/13 09:41:07;;;;;;;;;0.00;0.00;;;;;10.07;73.38;102353.91;5033168;28;48262;-86
2021/12/13 09:43:53;;;;;;;;;0.75;0.75;;;;;10.26;72.88;102378.88;5035182;28;45645;-88
2021/12/13 09:46:29;;;;;;;;;0.00;0.00;;;;;10.18;72.57;102372.53;5047381;28;45461;-88
2021/12/13 09:48:58;;;;;;;;;0.00;0.00;;;;;10.24;72.57;102379.66;5042637;28;45442;-85
2021/12/13 09:51:30;;;;;;;;;0.00;0.00;;;;;9.35;72.50;102238.56;5036946;28;45366;-85
2021/12/13 09:54:00;;;;;;;;;0.00;0.00;;;;;10.18;72.44;102372.53;5057998;28;45451;-86
2021/12/13 09:56:30;;;;;;;;;1.00;1.00;;;;;9.92;72.21;102329.94;5043121;28;45485;-85
2021/12/13 09:59:05;;;;;;;;;0.00;0.00;;;;;10.15;72.26;102367.22;5043880;28;46485;-87
2021/12/13 10:01:35;;;;;;;;;0.25;0.00;;;;;9.91;72.57;102315.13;5040318;28;46613;-86
2021/12/13 10:04:08;;;;;;;;;0.00;0.00;;;;;10.33;72.39;102393.03;5040776;28;45334;-85
2021/12/13 10:06:40;;;;;;;;;0.00;0.00;;;;;10.17;71.87;102346.44;5049458;28;45277;-85
2021/12/13 10:09:16;;;;;;;;;0.00;0.00;;;;;10.36;71.76;102398.31;5046924;28;45585;-86
2021/12/13 10:11:47;;;;;;;;;0.00;0.00;;;;;10.32;71.82;102388.63;5047005;28;45495;-90
2021/12/13 10:14:17;;;;;;;;;0.00;0.00;;;;;10.21;71.50;102379.56;5045552;28;45475;-88
2021/12/13 10:16:46;;;;;;;;;0.00;0.00;;;;;9.91;71.06;102343.75;5056128;28;44845;-86
2021/12/13 10:19:18;;;;;;;;;0.00;0.00;;;;;10.20;71.48;102390.81;5058979;28;45232;-85
2021/12/13 10:21:46;;;;;;;;;0.00;0.00;;;;;10.15;71.33;102385.44;5055260;28;45372;-85
2021/12/13 10:24:20;;;;;;;;;0.00;0.00;;;;;9.88;71.18;102348.03;5038039;28;45347;-85
2021/12/13 10:26:47;;;;;;;;;0.25;0.25;;;;;9.80;71.72;102332.97;5039071;28;45601;-83
2021/12/13 10:29:14;;;;;;;;;0.00;0.00;;;;;9.36;70.72;102261.13;5039281;28;45651;-87
2021/12/13 10:32:02;;;;;;;;;0.00;0.00;;;;;9.89;71.07;102356.69;5032926;28;46049;-84
2021/12/13 10:34:33;;;;;;;;;0.00;0.00;;;;;10.00;71.17;102385.72;5040853;28;45494;-86
2021/12/13 10:37:17;;;;;;;;;0.00;0.00;;;;;10.01;70.85;102374.50;5043138;28;44827;-84
2021/12/13 10:39:50;;;;;;;;;0.00;0.00;;;;;9.29;70.71;102257.41;5041380;28;45820;-85
2021/12/13 10:42:22;;;;;;;;;0.00;0.00;;;;;9.81;71.05;102345.13;5040450;28;47123;-84
2021/12/13 10:44:49;;;;;;;;;0.00;0.00;;;;;9.95;71.00;102389.91;5042688;28;45364;-84
2021/12/13 10:47:30;;;;;;;;;0.00;0.00;;;;;9.86;70.69;102388.69;5039298;28;45387;-86
2021/12/13 10:49:57;;;;;;;;;0.00;0.00;;;;;9.84;70.91;102386.88;5032564;28;45417;-85
2021/12/13 10:52:36;;;;;;;;;0.00;0.00;;;;;9.61;71.18;102338.34;5037260;28;46552;-85
2021/12/13 10:55:11;;;;;;;;;0.00;0.00;;;;;9.44;71.05;102313.41;5048034;28;45386;-84
2021/12/13 10:57:43;;;;;;;;;0.00;0.00;;;;;9.62;70.92;102334.91;5042034;28;45460;-78
2021/12/13 11:00:30;;;;;;;;;1.50;0.00;;;;;9.87;71.40;102376.59;5038296;28;45639;-76
2021/12/13 11:03:10;;;;;;;;;1.00;1.00;;;;;9.62;70.98;102337.50;5042776;28;46209;-77
2021/12/13 11:05:37;;;;;;;;;0.00;0.00;;;;;9.85;71.00;102373.94;5042241;28;45503;-76
2021/12/13 11:08:07;;;;;;;;;4.00;0.00;;;;;9.82;70.97;102360.81;5037860;28;45538;-77
2021/12/13 11:10:46;;;;;;;;;0.00;0.00;;;;;9.64;70.84;102324.56;5033109;28;45613;-76
2021/12/13 11:13:12;;;;;;;;;1.00;0.00;;;;;9.58;70.97;102321.72;5037676;28;45341;-76
2021/12/13 11:15:40;;;;;;;;;0.00;0.00;;;;;9.89;71.04;102368.00;5046008;28;45289;-78
2021/12/13 11:18:12;;;;;;;;;0.00;0.00;;;;;9.88;70.87;102374.03;5040432;28;45402;-80
2021/12/13 11:20:45;;;;;;;;;0.00;0.00;;;;;9.43;70.74;102307.31;5042855;28;45422;-77
2021/12/13 11:23:15;;;;;;;;;0.00;0.00;;;;;9.77;71.34;102370.13;5041539;28;45444;-78
2021/12/13 11:25:45;;;;;;;;;0.00;0.00;;;;;9.85;71.29;102386.94;5039067;28;45625;-79
2021/12/13 11:28:13;;;;;;;;;0.00;0.00;;;;;9.83;71.17;102380.78;5037230;28;45390;-76
2021/12/13 11:30:39;;;;;;;;;0.00;0.00;;;;;9.85;71.36;102386.03;5035907;28;45628;-84
2021/12/13 11:33:16;;;;;;;;;0.00;0.00;;;;;9.80;70.67;102379.78;5035487;28;46123;-79
2021/12/13 11:36:38;;;;;;;;;0.50;0.50;;;;;9.68;70.62;102372.41;5041969;28;45405;-78
2021/12/13 11:39:15;;;;;;;;;0.00;0.00;;;;;9.59;71.17;102368.59;5033345;28;45485;-77
2021/12/13 11:42:09;;;;;;;;;0.00;0.00;;;;;9.56;71.19;102370.19;5061684;28;45563;-77
2021/12/13 11:45:02;;;;;;;;;0.00;0.00;;;;;9.58;71.51;102373.72;5039382;28;45538;-76
2021/12/13 11:48:12;;;;;;;;;0.00;0.00;;;;;9.53;71.40;102350.19;5033334;28;45544;-76
2021/12/13 11:50:56;;;;;;;;;3.00;0.00;;;;;9.70;71.55;102368.13;5019026;28;45470;-77
2021/12/13 11:53:42;;;;;;;;;0.00;0.00;;;;;9.56;71.10;102352.00;5031649;28;45584;-77
2021/12/13 11:56:34;;;;;;;;;0.00;0.00;;;;;9.52;71.22;102340.59;5034636;28;45904;-81
2021/12/13 11:59:22;;;;;;;;;0.00;0.00;;;;;9.62;71.50;102353.13;5036614;28;45542;-87
2021/12/13 12:02:07;;;;;;;;;0.00;0.00;;;;;8.70;71.55;102208.38;5038084;28;45404;-87
2021/12/13 12:04:47;;;;;;;;;0.00;0.00;;;;;9.57;71.64;102339.06;5043948;28;45261;-86
2021/12/13 12:07:12;;;;;;;;;0.00;0.00;;;;;9.60;71.66;102333.09;5044031;28;46292;-87
2021/12/13 12:10:00;;;;;;;;;0.75;0.00;;;;;9.29;71.76;102279.91;5045546;28;45452;-87
2021/12/13 12:13:03;;;;;;;;;0.00;0.00;;;;;9.65;71.74;102334.16;5044566;28;45457;-87